Time;durP1;ratioP1;P1;durP2;ratioP2;P2;SDS_P1;SDS_P2;PMS_P1;PMS_P2;Temp;Humidity;BMP_temperature;BMP_pressure;BME280_temperature;BME280_humidity;BME280_pressure;Samples;Min_cycle;Max_cycle;Signal;HPM_P1;HPM_P2
2022/10/17 00:00:33;;;;;;;9.95;7.32;;;13.80;99.90;;;;;;7321879;32;20116;-60
2022/10/17 00:04:35;;;;;;;9.70;7.12;;;13.90;99.90;;;;;;7317704;32;20119;-61
2022/10/17 00:08:37;;;;;;;12.98;7.18;;;14.00;99.90;;;;;;7320538;32;20210;-61
2022/10/17 00:12:39;;;;;;;12.95;9.10;;;14.00;99.90;;;;;;7317426;32;20783;-61
2022/10/17 00:16:41;;;;;;;12.02;7.80;;;14.30;99.90;;;;;;7317315;32;20146;-61
2022/10/17 00:20:42;;;;;;;10.07;7.25;;;14.30;99.90;;;;;;7318266;32;20194;-61
2022/10/17 00:24:44;;;;;;;15.20;7.75;;;14.30;99.90;;;;;;7317559;32;20111;-61
2022/10/17 00:28:48;;;;;;;13.73;7.85;;;14.40;99.90;;;;;;7325466;32;20709;-61
2022/10/17 00:32:50;;;;;;;9.00;7.43;;;14.50;99.90;;;;;;7323574;32;20111;-60
2022/10/17 00:36:52;;;;;;;14.80;7.47;;;14.50;99.90;;;;;;7324370;32;20157;-61
2022/10/17 00:40:53;;;;;;;11.07;7.00;;;14.60;99.90;;;;;;7324655;32;20215;-61
2022/10/17 00:45:16;;;;;;;13.93;7.47;;;14.80;99.90;;;;;;7318662;32;20113;-61
2022/10/17 00:49:19;;;;;;;10.27;6.80;;;14.80;99.90;;;;;;7318274;32;20096;-61
2022/10/17 00:53:21;;;;;;;14.90;7.25;;;14.80;99.90;;;;;;7323391;32;20506;-61
2022/10/17 00:57:23;;;;;;;10.70;7.05;;;14.80;99.90;;;;;;7327738;32;20191;-62
2022/10/17 01:01:25;;;;;;;10.40;6.82;;;14.90;99.90;;;;;;7323118;32;20125;-61
2022/10/17 01:05:28;;;;;;;10.27;6.78;;;15.00;99.90;;;;;;7317593;32;20724;-61
2022/10/17 01:09:30;;;;;;;9.88;7.15;;;15.00;99.90;;;;;;7320513;32;20107;-61
2022/10/17 01:13:50;;;;;;;9.50;6.60;;;15.00;99.90;;;;;;7326314;32;20191;-60
2022/10/17 01:18:12;;;;;;;9.77;6.82;;;15.10;99.90;;;;;;7323121;32;20100;-61
2022/10/17 01:22:27;;;;;;;7.78;6.32;;;15.20;99.90;;;;;;7324352;32;20108;-61
2022/10/17 01:26:57;;;;;;;11.07;6.15;;;15.10;99.90;;;;;;7321677;32;20107;-60
2022/10/17 01:31:03;;;;;;;9.07;6.15;;;15.20;99.90;;;;;;7314495;32;20100;-61
2022/10/17 01:35:36;;;;;;;6.47;5.87;;;15.30;99.90;;;;;;7325227;32;20153;-60
2022/10/17 01:39:48;;;;;;;7.78;5.75;;;15.30;99.90;;;;;;7320012;32;20096;-61
2022/10/17 01:43:58;;;;;;;6.68;5.68;;;15.30;99.90;;;;;;7320172;32;20101;-61
2022/10/17 01:48:07;;;;;;;10.15;5.80;;;15.30;99.90;;;;;;7321448;32;20111;-61
2022/10/17 01:52:14;;;;;;;12.07;6.07;;;15.30;99.90;;;;;;7318187;32;20129;-60
2022/10/17 01:56:18;;;;;;;12.68;5.53;;;15.40;99.90;;;;;;7318834;32;20099;-61
2022/10/17 02:00:24;;;;;;;12.68;5.53;;;15.40;99.90;;;;;;7311573;32;20133;-60
2022/10/17 02:04:27;;;;;;;11.20;5.85;;;15.40;99.90;;;;;;7311107;32;20504;-60
2022/10/17 02:08:41;;;;;;;12.05;5.85;;;15.40;99.90;;;;;;7318905;32;20217;-61
2022/10/17 02:13:00;;;;;;;9.65;5.25;;;15.30;99.90;;;;;;7322519;32;20634;-60
2022/10/17 02:17:26;;;;;;;8.25;5.03;;;15.30;99.90;;;;;;7313879;32;20257;-61
2022/10/17 02:21:55;;;;;;;8.93;5.43;;;15.20;99.90;;;;;;7310098;32;20472;-61
2022/10/17 02:26:13;;;;;;;9.45;5.65;;;15.20;99.90;;;;;;7314264;32;20237;-60
2022/10/17 02:30:28;;;;;;;9.50;5.93;;;15.20;99.90;;;;;;7314305;32;20099;-61
2022/10/17 02:34:32;;;;;;;9.10;5.43;;;15.20;99.90;;;;;;7319780;32;20124;-60
2022/10/17 02:38:34;;;;;;;6.40;5.45;;;15.20;99.90;;;;;;7319338;32;20126;-60
2022/10/17 02:42:38;;;;;;;9.52;6.03;;;15.30;99.90;;;;;;7306405;32;20100;-61
2022/10/17 02:46:41;;;;;;;10.90;5.25;;;15.30;99.90;;;;;;7313121;32;20145;-60
2022/10/17 02:51:08;;;;;;;9.45;5.20;;;15.30;99.90;;;;;;7321495;32;20194;-61
2022/10/17 02:55:25;;;;;;;10.00;5.60;;;15.40;99.90;;;;;;7316225;32;20453;-60
2022/10/17 02:59:29;;;;;;;7.70;5.18;;;15.40;99.90;;;;;;7316543;32;20107;-60
2022/10/17 03:03:31;;;;;;;9.82;5.68;;;15.40;99.90;;;;;;7314283;32;20116;-61
2022/10/17 03:07:33;;;;;;;6.20;5.18;;;15.30;99.90;;;;;;7319962;32;20250;-61
2022/10/17 03:11:35;;;;;;;9.73;5.22;;;15.30;99.90;;;;;;7316193;32;20615;-61
2022/10/17 03:15:37;;;;;;;10.10;5.25;;;15.30;99.90;;;;;;7314081;32;20478;-60
2022/10/17 03:19:38;;;;;;;10.20;5.10;;;15.30;99.90;;;;;;7315977;32;20104;-60
2022/10/17 03:23:40;;;;;;;10.65;5.25;;;15.30;99.90;;;;;;7336413;32;20133;-60
2022/10/17 03:27:42;;;;;;;8.43;5.40;;;15.30;99.90;;;;;;7315884;32;20115;-61
2022/10/17 03:31:43;;;;;;;10.77;5.85;;;15.30;99.90;;;;;;7318787;32;20606;-60
2022/10/17 03:35:45;;;;;;;8.10;5.50;;;15.30;99.90;;;;;;7320226;32;20519;-61
2022/10/17 03:39:47;;;;;;;8.55;5.03;;;15.40;99.90;;;;;;7322119;32;20533;-61
2022/10/17 03:43:50;;;;;;;7.25;5.20;;;15.40;99.90;;;;;;7322301;32;20135;-61
2022/10/17 03:47:52;;;;;;;7.80;4.95;;;15.40;99.90;;;;;;7321199;32;20129;-61
2022/10/17 03:51:54;;;;;;;10.55;4.95;;;15.40;99.90;;;;;;7327802;32;20212;-61
2022/10/17 03:56:07;;;;;;;5.35;4.80;;;15.30;99.90;;;;;;7326964;32;20525;-61
2022/10/17 04:00:09;;;;;;;7.62;4.93;;;15.40;99.90;;;;;;7325755;32;20765;-60
2022/10/17 04:04:11;;;;;;;6.87;4.97;;;15.60;99.90;;;;;;7315959;32;20129;-60
2022/10/17 04:08:12;;;;;;;6.78;4.28;;;15.60;99.90;;;;;;7325793;32;20108;-61
2022/10/17 04:12:14;;;;;;;9.93;4.95;;;15.60;99.90;;;;;;7322495;32;20217;-61
2022/10/17 04:16:16;;;;;;;5.72;5.12;;;15.60;99.90;;;;;;7317494;32;20126;-61
2022/10/17 04:20:18;;;;;;;8.85;4.95;;;15.60;99.90;;;;;;7317922;32;20104;-63
2022/10/17 04:24:20;;;;;;;9.38;4.70;;;15.60;99.90;;;;;;7318658;32;20647;-60
2022/10/17 04:28:22;;;;;;;8.57;4.70;;;15.60;99.90;;;;;;7314043;32;20186;-60
2022/10/17 04:32:24;;;;;;;7.78;4.18;;;15.70;99.90;;;;;;7324563;32;20100;-60
2022/10/17 04:36:26;;;;;;;5.20;4.60;;;15.50;99.90;;;;;;7317988;32;20733;-60
2022/10/17 04:40:28;;;;;;;6.62;5.05;;;15.50;99.90;;;;;;7319179;32;20308;-61
2022/10/17 04:44:30;;;;;;;7.62;4.50;;;15.60;99.90;;;;;;7327583;32;20126;-62
2022/10/17 04:48:32;;;;;;;10.27;5.00;;;15.60;99.90;;;;;;7313560;32;20104;-61
2022/10/17 04:52:36;;;;;;;7.00;4.57;;;15.50;99.90;;;;;;7321985;32;20611;-60
2022/10/17 04:56:38;;;;;;;9.70;4.95;;;15.60;99.90;;;;;;7311805;32;20112;-63
2022/10/17 05:00:40;;;;;;;8.07;4.45;;;15.50;99.90;;;;;;7317872;32;20796;-64
2022/10/17 05:04:42;;;;;;;7.65;4.90;;;15.60;99.90;;;;;;7312738;32;20236;-65
2022/10/17 05:08:44;;;;;;;11.40;5.10;;;15.60;99.90;;;;;;7315963;32;20520;-63
2022/10/17 05:12:47;;;;;;;10.25;4.55;;;15.60;99.90;;;;;;7315055;32;20107;-64
2022/10/17 05:16:49;;;;;;;8.27;4.53;;;15.60;99.90;;;;;;7320127;32;20568;-63
2022/10/17 05:20:50;;;;;;;8.95;4.43;;;15.60;99.90;;;;;;7303167;32;20134;-64
2022/10/17 05:24:52;;;;;;;9.85;4.07;;;15.70;99.90;;;;;;7318939;32;20125;-63
2022/10/17 05:28:54;;;;;;;12.23;4.57;;;15.70;99.90;;;;;;7321089;32;20190;-63
2022/10/17 05:32:56;;;;;;;7.72;4.75;;;15.70;99.90;;;;;;7314043;32;20112;-63
2022/10/17 05:36:57;;;;;;;6.05;4.30;;;15.60;99.90;;;;;;7309797;32;20135;-62
2022/10/17 05:41:04;;;;;;;11.32;4.90;;;15.60;99.90;;;;;;7326411;32;20199;-62
2022/10/17 05:45:06;;;;;;;9.93;5.87;;;15.70;99.90;;;;;;7300141;32;22350;-60
2022/10/17 05:49:09;;;;;;;8.00;4.37;;;15.80;99.90;;;;;;7308058;32;20214;-63
2022/10/17 05:53:29;;;;;;;9.68;4.57;;;15.70;99.90;;;;;;7324060;32;20100;-60
2022/10/17 05:57:31;;;;;;;6.28;4.97;;;15.70;99.90;;;;;;7314373;32;20245;-60
2022/10/17 06:01:33;;;;;;;10.02;5.10;;;15.70;99.90;;;;;;7315229;32;20111;-66
2022/10/17 06:05:35;;;;;;;8.73;4.30;;;15.70;99.90;;;;;;7306301;32;20759;-65
2022/10/17 06:09:37;;;;;;;10.77;4.55;;;15.60;99.90;;;;;;7316529;32;20100;-65
2022/10/17 06:13:39;;;;;;;5.82;4.03;;;15.60;99.90;;;;;;7316876;32;20120;-64
2022/10/17 06:17:41;;;;;;;5.53;4.07;;;15.50;99.90;;;;;;7320313;32;20835;-67
2022/10/17 06:21:42;;;;;;;10.10;4.70;;;15.60;99.90;;;;;;7319622;32;20146;-66
2022/10/17 06:25:44;;;;;;;11.25;5.40;;;15.60;99.90;;;;;;7317838;32;20799;-65
2022/10/17 06:29:47;;;;;;;6.35;4.32;;;15.60;99.90;;;;;;7311707;32;20171;-67
2022/10/17 06:33:48;;;;;;;8.77;4.32;;;15.60;99.90;;;;;;7311999;32;20088;-66
2022/10/17 06:37:50;;;;;;;7.53;4.40;;;15.70;99.90;;;;;;7306594;32;20205;-67
2022/10/17 06:41:52;;;;;;;8.23;4.10;;;15.70;99.90;;;;;;7318735;32;20552;-67
2022/10/17 06:45:53;;;;;;;7.50;4.25;;;15.60;99.90;;;;;;7312305;32;20138;-67
2022/10/17 06:49:55;;;;;;;6.55;4.15;;;15.60;99.90;;;;;;7319492;32;20220;-66
2022/10/17 06:53:58;;;;;;;8.52;4.50;;;15.60;99.90;;;;;;7322008;32;20103;-66
2022/10/17 06:57:59;;;;;;;5.12;4.00;;;15.70;99.90;;;;;;7322800;32;20142;-66
2022/10/17 07:02:01;;;;;;;8.80;4.07;;;15.80;99.90;;;;;;7317269;32;20793;-66
2022/10/17 07:06:03;;;;;;;9.00;4.25;;;15.80;99.90;;;;;;7316948;32;20135;-67
2022/10/17 07:10:07;;;;;;;7.20;4.15;;;15.80;99.90;;;;;;7320973;32;20183;-66
2022/10/17 07:14:09;;;;;;;8.20;4.75;;;15.80;99.90;;;;;;7324700;32;20105;-64
2022/10/17 07:18:11;;;;;;;8.75;4.07;;;15.80;99.90;;;;;;7318367;32;20130;-67
2022/10/17 07:22:13;;;;;;;5.35;3.80;;;15.80;99.90;;;;;;7319812;32;20133;-67
2022/10/17 07:26:16;;;;;;;6.62;3.80;;;15.90;99.90;;;;;;7322882;32;20111;-66
2022/10/17 07:30:18;;;;;;;5.55;4.18;;;16.10;99.90;;;;;;7317151;32;20131;-65
2022/10/17 07:34:20;;;;;;;7.03;4.03;;;16.10;99.90;;;;;;7320511;32;20320;-66
2022/10/17 07:38:22;;;;;;;9.15;4.28;;;16.20;99.90;;;;;;7315973;32;20133;-66
2022/10/17 07:42:24;;;;;;;6.85;4.07;;;16.30;99.90;;;;;;7315271;32;20095;-68
2022/10/17 07:46:25;;;;;;;7.07;3.40;;;16.60;99.90;;;;;;7321624;32;20213;-65
2022/10/17 07:50:28;;;;;;;12.55;4.00;;;16.60;99.90;;;;;;7318064;32;20096;-66
2022/10/17 07:54:29;;;;;;;17.85;3.97;;;16.80;99.90;;;;;;7313715;32;20174;-66
2022/10/17 07:58:31;;;;;;;12.73;4.03;;;16.80;99.90;;;;;;7326379;32;20091;-64
2022/10/17 08:02:33;;;;;;;4.72;3.42;;;16.70;99.90;;;;;;7317512;32;20100;-66
2022/10/17 08:06:34;;;;;;;6.30;3.60;;;16.80;99.90;;;;;;7317779;32;20126;-67
2022/10/17 08:10:36;;;;;;;7.25;3.85;;;16.90;99.90;;;;;;7316168;32;20104;-66
2022/10/17 08:14:38;;;;;;;6.80;3.20;;;16.90;99.90;;;;;;7325582;32;20096;-65
2022/10/17 08:18:41;;;;;;;7.47;3.85;;;17.00;99.90;;;;;;7319210;32;20099;-67
2022/10/17 08:22:51;;;;;;;6.05;3.70;;;17.10;99.90;;;;;;7320019;32;20107;-67
2022/10/17 08:26:52;;;;;;;6.95;3.55;;;17.30;99.90;;;;;;7318136;32;20103;-66
2022/10/17 08:31:06;;;;;;;5.60;3.15;;;17.60;99.90;;;;;;7318219;32;20095;-66
2022/10/17 08:35:08;;;;;;;5.18;3.45;;;17.70;99.90;;;;;;7314316;32;20237;-67
2022/10/17 08:39:10;;;;;;;6.43;3.17;;;17.80;99.90;;;;;;7323645;32;20091;-65
2022/10/17 08:43:27;;;;;;;6.65;3.10;;;17.90;99.90;;;;;;7323408;32;20121;-66
2022/10/17 08:47:41;;;;;;;5.10;3.10;;;17.90;99.90;;;;;;7317604;32;20198;-67
2022/10/17 08:52:05;;;;;;;5.85;3.30;;;17.80;99.90;;;;;;7322417;32;20142;-66
2022/10/17 08:56:42;;;;;;;8.90;3.20;;;17.80;99.90;;;;;;7315900;32;20099;-65
2022/10/17 09:01:03;;;;;;;4.80;3.20;;;18.10;99.90;;;;;;7313576;32;20178;-64
2022/10/17 09:05:31;;;;;;;6.43;3.20;;;18.10;99.90;;;;;;7311895;32;20234;-64
2022/10/17 09:09:59;;;;;;;7.30;3.28;;;18.20;99.90;;;;;;7314581;32;20229;-66
2022/10/17 09:14:12;;;;;;;4.82;2.87;;;18.50;99.90;;;;;;7321439;32;20122;-65
2022/10/17 09:18:25;;;;;;;9.02;3.00;;;18.60;99.90;;;;;;7313523;32;20217;-64
2022/10/17 09:22:33;;;;;;;5.93;3.22;;;18.80;99.90;;;;;;7319890;32;20103;-65
2022/10/17 09:26:38;;;;;;;8.15;3.15;;;19.00;99.90;;;;;;7311528;32;20576;-65
2022/10/17 09:30:43;;;;;;;4.72;3.10;;;19.30;99.90;;;;;;7312570;32;20097;-65
2022/10/17 09:34:47;;;;;;;8.30;2.80;;;19.60;99.90;;;;;;7317246;32;20222;-65
2022/10/17 09:38:53;;;;;;;5.70;2.65;;;19.80;99.90;;;;;;7314658;32;20100;-65
2022/10/17 09:42:54;;;;;;;6.43;2.85;;;20.00;99.90;;;;;;7312559;32;20246;-64
2022/10/17 09:47:10;;;;;;;5.87;2.87;;;19.70;99.90;;;;;;7318664;32;20106;-65
2022/10/17 09:51:14;;;;;;;6.47;2.50;;;19.50;99.90;;;;;;7312898;32;20103;-64
2022/10/17 09:55:32;;;;;;;4.82;2.70;;;19.40;99.90;;;;;;7316355;32;20108;-64
2022/10/17 09:59:38;;;;;;;5.90;2.97;;;19.20;99.90;;;;;;7311434;32;20745;-65
2022/10/17 10:03:39;;;;;;;5.85;2.87;;;19.40;99.90;;;;;;7317382;32;20138;-65
2022/10/17 10:07:43;;;;;;;4.05;3.12;;;19.20;99.90;;;;;;7313373;32;20618;-65
2022/10/17 10:11:55;;;;;;;8.07;3.00;;;19.10;99.90;;;;;;7310300;32;20887;-67
2022/10/17 10:16:20;;;;;;;5.22;3.05;;;19.10;99.90;;;;;;7315240;32;20123;-66
2022/10/17 10:20:30;;;;;;;10.25;3.28;;;18.90;99.90;;;;;;7310891;32;20119;-65
2022/10/17 10:24:32;;;;;;;6.25;3.10;;;18.80;99.90;;;;;;7316770;32;20107;-66
2022/10/17 10:28:35;;;;;;;6.95;3.37;;;18.70;99.90;;;;;;7305641;32;20249;-65
2022/10/17 10:32:37;;;;;;;5.60;3.42;;;18.80;99.90;;;;;;7306483;32;20547;-65
2022/10/17 10:36:49;;;;;;;8.32;3.58;;;18.90;99.90;;;;;;7308601;32;20122;-66
2022/10/17 10:40:54;;;;;;;13.77;3.17;;;19.00;99.90;;;;;;7310476;32;20240;-66
2022/10/17 10:45:16;;;;;;;6.15;3.03;;;19.00;99.90;;;;;;7311500;32;20226;-66
2022/10/17 10:49:38;;;;;;;5.62;3.25;;;19.10;99.90;;;;;;7325055;32;20112;-64
2022/10/17 10:53:46;;;;;;;12.02;4.12;;;19.20;99.90;;;;;;7314737;32;20100;-64
2022/10/17 10:57:51;;;;;;;6.12;3.00;;;19.10;99.90;;;;;;7311757;32;20686;-65
2022/10/17 11:01:58;;;;;;;8.20;3.12;;;19.10;99.90;;;;;;7308946;32;20178;-64
2022/10/17 11:06:10;;;;;;;6.80;3.30;;;19.10;99.90;;;;;;7317510;32;20096;-66
2022/10/17 11:10:22;;;;;;;6.82;3.15;;;19.00;99.90;;;;;;7314364;32;20130;-65
2022/10/17 11:14:39;;;;;;;8.50;3.58;;;19.00;99.90;;;;;;7315889;32;20238;-68
2022/10/17 11:18:49;;;;;;;9.15;3.15;;;18.80;99.90;;;;;;7314972;32;20223;-68
2022/10/17 11:23:39;;;;;;;9.52;3.42;;;18.80;99.90;;;;;;7313415;32;20126;-66
2022/10/17 11:27:41;;;;;;;8.88;3.50;;;18.70;99.90;;;;;;7308679;32;20103;-62
2022/10/17 11:31:49;;;;;;;6.10;3.60;;;18.80;99.90;;;;;;7308314;32;20666;-62
2022/10/17 11:35:54;;;;;;;8.40;3.28;;;18.70;99.90;;;;;;7313697;32;20537;-62
2022/10/17 11:40:06;;;;;;;7.45;3.20;;;18.70;99.90;;;;;;7322580;32;20203;-66
2022/10/17 11:44:20;;;;;;;8.20;3.58;;;18.80;99.90;;;;;;7327527;32;20099;-64
2022/10/17 11:48:40;;;;;;;7.82;3.28;;;18.90;99.90;;;;;;7321400;32;20111;-66
2022/10/17 11:52:50;;;;;;;6.43;3.62;;;18.90;99.90;;;;;;7320952;32;20108;-66
2022/10/17 11:57:16;;;;;;;8.65;3.65;;;19.00;99.90;;;;;;7322006;32;20108;-65
2022/10/17 12:01:29;;;;;;;9.07;2.95;;;19.00;99.90;;;;;;7314346;32;20124;-65
2022/10/17 12:05:45;;;;;;;7.35;3.35;;;19.10;99.90;;;;;;7321714;32;20157;-65
2022/10/17 12:09:47;;;;;;;5.03;3.33;;;19.10;99.90;;;;;;7322536;32;20099;-65
2022/10/17 12:13:52;;;;;;;8.90;3.42;;;19.00;99.90;;;;;;7323986;32;20153;-65
2022/10/17 12:18:02;;;;;;;6.55;3.80;;;18.90;99.90;;;;;;7321514;32;20219;-68
2022/10/17 12:22:22;;;;;;;7.62;3.55;;;18.80;99.90;;;;;;7319729;32;20153;-67
2022/10/17 12:26:28;;;;;;;5.25;4.22;;;18.90;99.90;;;;;;7326093;32;20254;-67
2022/10/17 12:30:30;;;;;;;9.20;3.87;;;18.80;99.90;;;;;;7321707;32;20131;-66
2022/10/17 12:34:31;;;;;;;8.38;3.92;;;18.70;99.90;;;;;;7323280;32;20108;-64
2022/10/17 12:38:33;;;;;;;7.65;4.25;;;18.70;99.90;;;;;;7319653;32;20681;-64
2022/10/17 12:42:46;;;;;;;8.60;4.32;;;18.50;99.90;;;;;;7318289;32;20214;-63
2022/10/17 12:47:04;;;;;;;9.88;4.03;;;18.50;99.90;;;;;;7320456;32;20129;-66
2022/10/17 12:51:08;;;;;;;;;;;18.40;99.90;;;;;;7317359;32;20248;-63
2022/10/17 12:55:29;;;;;;;6.57;4.60;;;18.40;99.90;;;;;;7332051;32;20043;-64
2022/10/17 12:59:31;;;;;;;9.32;4.93;;;18.30;99.90;;;;;;7321476;32;20466;-65
2022/10/17 13:03:41;;;;;;;8.10;4.75;;;18.30;99.90;;;;;;7325650;32;20222;-65
2022/10/17 13:07:44;;;;;;;9.57;4.45;;;18.30;99.90;;;;;;7312261;32;20112;-63
2022/10/17 13:11:49;;;;;;;7.45;4.50;;;18.20;99.90;;;;;;7321209;32;20658;-64
2022/10/17 13:15:53;;;;;;;9.23;4.57;;;18.10;99.90;;;;;;7318644;32;20456;-64
2022/10/17 13:19:55;;;;;;;13.13;5.60;;;18.10;99.90;;;;;;7331790;32;20133;-63
2022/10/17 13:23:57;;;;;;;9.57;5.12;;;18.00;99.90;;;;;;7317488;32;20145;-59
2022/10/17 13:28:11;;;;;;;7.43;4.85;;;18.00;99.90;;;;;;7318312;32;20112;-59
2022/10/17 13:32:12;;;;;;;7.25;5.22;;;18.10;99.90;;;;;;7317566;32;20138;-61
2022/10/17 13:36:15;;;;;;;9.80;4.93;;;18.10;99.90;;;;;;7318494;32;20108;-64
2022/10/17 13:40:20;;;;;;;9.38;4.60;;;18.10;99.90;;;;;;7310597;32;20261;-64
2022/10/17 13:44:42;;;;;;;9.90;5.03;;;18.00;99.90;;;;;;7310424;32;20115;-63
2022/10/17 13:48:44;;;;;;;7.30;4.50;;;18.00;99.90;;;;;;7314510;32;20127;-63
2022/10/17 13:52:46;;;;;;;8.80;4.75;;;18.00;99.90;;;;;;7314573;32;20331;-63
2022/10/17 13:56:55;;;;;;;10.23;7.97;;;18.10;99.90;;;;;;7322346;32;20088;-59
2022/10/17 14:01:02;;;;;;;11.40;4.12;;;18.10;99.90;;;;;;7317190;32;20107;-63
2022/10/17 14:05:07;;;;;;;9.27;4.30;;;18.20;99.90;;;;;;7315144;32;20100;-64
2022/10/17 14:09:19;;;;;;;6.78;4.00;;;18.20;99.90;;;;;;7314660;32;20095;-64
2022/10/17 14:13:24;;;;;;;10.07;3.25;;;18.50;99.90;;;;;;7309728;32;20116;-63
2022/10/17 14:17:28;;;;;;;7.47;3.45;;;18.60;99.90;;;;;;7312812;32;20137;-64
2022/10/17 14:21:30;;;;;;;9.05;3.00;;;18.70;99.90;;;;;;7304851;32;20811;-63
2022/10/17 14:25:45;;;;;;;9.45;3.45;;;18.60;99.90;;;;;;7309838;32;20103;-63
2022/10/17 14:29:52;;;;;;;8.95;3.60;;;18.70;99.90;;;;;;7310848;32;20203;-63
2022/10/17 14:33:54;;;;;;;7.18;3.03;;;18.70;99.90;;;;;;7312169;32;20129;-63
2022/10/17 14:38:05;;;;;;;9.13;3.20;;;18.90;99.90;;;;;;7314209;32;20199;-64
2022/10/17 14:42:19;;;;;;;6.65;3.47;;;18.90;99.90;;;;;;7312619;32;20606;-63
2022/10/17 14:46:21;;;;;;;5.90;2.95;;;18.80;99.90;;;;;;7304727;32;20641;-63
2022/10/17 14:50:28;;;;;;;6.32;2.58;;;19.00;99.90;;;;;;7311887;32;20187;-65
2022/10/17 14:54:34;;;;;;;8.63;3.40;;;18.90;99.90;;;;;;7303911;32;20104;-64
2022/10/17 14:58:36;;;;;;;9.48;3.17;;;18.80;99.90;;;;;;7316618;32;20146;-61
2022/10/17 15:02:38;;;;;;;8.68;2.75;;;18.90;99.90;;;;;;7317739;32;20126;-64
2022/10/17 15:06:40;;;;;;;9.75;3.17;;;18.90;99.90;;;;;;7312312;32;20135;-62
2022/10/17 15:10:42;;;;;;;6.03;3.00;;;18.90;99.90;;;;;;7314009;32;20096;-62
2022/10/17 15:14:46;;;;;;;7.05;3.17;;;18.90;99.90;;;;;;7322135;32;20189;-65
2022/10/17 15:18:49;;;;;;;11.70;3.47;;;18.80;99.90;;;;;;7316220;32;20228;-63
2022/10/17 15:22:52;;;;;;;10.05;3.10;;;18.80;99.90;;;;;;7321362;32;20118;-64
2022/10/17 15:26:54;;;;;;;11.27;3.30;;;18.70;99.90;;;;;;7318084;32;20096;-63
2022/10/17 15:30:56;;;;;;;5.68;3.03;;;18.60;99.90;;;;;;7312307;32;20131;-62
2022/10/17 15:34:58;;;;;;;13.05;4.07;;;18.50;99.90;;;;;;7315535;32;20650;-63
2022/10/17 15:39:00;;;;;;;9.93;4.07;;;18.40;99.90;;;;;;7317929;32;20105;-62
2022/10/17 15:43:02;;;;;;;8.43;3.45;;;18.30;99.90;;;;;;7319539;32;20142;-63
2022/10/17 15:47:05;;;;;;;7.05;3.60;;;18.10;99.90;;;;;;7319144;32;20107;-66
2022/10/17 15:51:07;;;;;;;10.48;4.60;;;18.10;99.90;;;;;;7320089;32;20190;-62
2022/10/17 15:55:10;;;;;;;10.55;3.80;;;18.00;99.90;;;;;;7322955;32;20108;-62
2022/10/17 15:59:18;;;;;;;6.15;3.85;;;18.00;99.90;;;;;;7316399;32;20175;-64
2022/10/17 16:03:20;;;;;;;6.78;3.90;;;18.00;99.90;;;;;;7318270;32;20134;-63
2022/10/17 16:07:27;;;;;;;6.32;3.83;;;18.00;99.90;;;;;;7313606;32;20242;-63
2022/10/17 16:11:29;;;;;;;10.35;4.60;;;17.90;99.90;;;;;;7310983;32;20178;-62
2022/10/17 16:15:30;;;;;;;9.63;4.90;;;17.80;99.90;;;;;;7317376;32;20166;-63
2022/10/17 16:19:32;;;;;;;7.95;4.53;;;17.80;99.90;;;;;;7313677;32;20108;-63
2022/10/17 16:23:34;;;;;;;7.62;4.55;;;17.80;99.90;;;;;;7315904;32;20203;-64
2022/10/17 16:27:36;;;;;;;10.90;4.68;;;17.80;99.90;;;;;;7316213;32;20512;-62
2022/10/17 16:31:42;;;;;;;8.50;5.15;;;17.70;99.90;;;;;;7309907;32;20257;-63
2022/10/17 16:35:45;;;;;;;13.52;4.97;;;17.60;99.90;;;;;;7323427;32;20116;-65
2022/10/17 16:39:51;;;;;;;10.05;5.43;;;17.60;99.90;;;;;;7318656;32;20265;-63
2022/10/17 16:43:54;;;;;;;10.10;5.55;;;17.60;99.90;;;;;;7314304;32;20185;-63
2022/10/17 16:47:56;;;;;;;9.90;5.68;;;17.50;99.90;;;;;;7325609;32;20187;-60
2022/10/17 16:51:58;;;;;;;11.23;5.32;;;17.40;99.90;;;;;;7316175;32;20130;-60
2022/10/17 16:56:01;;;;;;;9.95;5.05;;;17.30;99.90;;;;;;7326486;32;20512;-60
2022/10/17 17:00:04;;;;;;;9.15;4.85;;;17.20;99.90;;;;;;7314156;32;20111;-60
2022/10/17 17:04:08;;;;;;;12.00;5.75;;;17.10;99.90;;;;;;7327304;32;20116;-61
2022/10/17 17:08:09;;;;;;;11.07;6.40;;;16.90;99.90;;;;;;7318861;32;20108;-60
2022/10/17 17:12:13;;;;;;;11.43;6.20;;;16.90;99.90;;;;;;7313345;32;20306;-62
2022/10/17 17:16:21;;;;;;;6.62;4.93;;;16.80;99.90;;;;;;7315261;32;20643;-61
2022/10/17 17:20:23;;;;;;;8.23;5.55;;;16.70;99.90;;;;;;7317029;32;20107;-60
2022/10/17 17:24:24;;;;;;;7.70;6.75;;;16.70;99.90;;;;;;7320684;32;20503;-61
2022/10/17 17:28:27;;;;;;;8.20;6.37;;;16.70;99.90;;;;;;7313545;32;20224;-61
2022/10/17 17:32:31;;;;;;;12.60;7.05;;;16.60;99.90;;;;;;7321190;32;20138;-61
2022/10/17 17:36:35;;;;;;;8.43;7.50;;;16.50;99.90;;;;;;7319703;32;20108;-60
2022/10/17 17:40:44;;;;;;;11.00;9.25;;;16.40;99.90;;;;;;7317453;32;20135;-60
2022/10/17 17:44:51;;;;;;;13.93;7.97;;;16.40;99.90;;;;;;7313866;32;20528;-61
2022/10/17 17:48:54;;;;;;;11.60;7.70;;;16.40;99.90;;;;;;7312601;32;20208;-62
2022/10/17 17:52:56;;;;;;;8.48;6.90;;;16.30;99.90;;;;;;7324114;32;20158;-60
2022/10/17 17:56:57;;;;;;;14.07;7.78;;;16.30;99.90;;;;;;7316101;32;20676;-60
2022/10/17 18:01:00;;;;;;;9.10;6.00;;;16.30;99.90;;;;;;7307137;32;20179;-60
2022/10/17 18:05:02;;;;;;;7.75;5.72;;;16.20;99.90;;;;;;7308146;32;20108;-60
2022/10/17 18:09:05;;;;;;;7.37;5.35;;;16.20;99.90;;;;;;7315921;32;20198;-61
2022/10/17 18:13:07;;;;;;;8.93;5.95;;;16.10;99.90;;;;;;7312326;32;20203;-61
2022/10/17 18:17:09;;;;;;;13.13;6.70;;;16.10;99.90;;;;;;7316063;32;20872;-60
2022/10/17 18:21:12;;;;;;;8.77;6.03;;;16.10;99.90;;;;;;7315331;32;20111;-60
2022/10/17 18:25:14;;;;;;;10.07;5.57;;;16.10;99.90;;;;;;7312519;32;20750;-62
2022/10/17 18:29:16;;;;;;;10.68;6.97;;;16.10;99.90;;;;;;7309438;32;20194;-60
2022/10/17 18:33:17;;;;;;;11.07;6.80;;;16.10;99.90;;;;;;7314721;32;20543;-61
2022/10/17 18:37:19;;;;;;;10.63;5.22;;;16.10;99.90;;;;;;7316261;32;20124;-62
2022/10/17 18:41:23;;;;;;;10.50;5.72;;;16.10;99.90;;;;;;7316584;32;20207;-60
2022/10/17 18:45:24;;;;;;;7.12;4.50;;;16.00;99.90;;;;;;7312214;32;20217;-62
2022/10/17 18:49:26;;;;;;;5.93;4.45;;;15.90;99.90;;;;;;7318146;32;20776;-61
2022/10/17 18:53:28;;;;;;;8.68;3.40;;;15.90;99.90;;;;;;7315534;32;20292;-61
2022/10/17 18:57:30;;;;;;;5.18;2.87;;;15.80;99.90;;;;;;7328350;32;20142;-61
2022/10/17 19:01:32;;;;;;;6.15;2.58;;;15.70;99.90;;;;;;7315654;32;20226;-64
2022/10/17 19:05:37;;;;;;;4.37;3.30;;;15.60;99.90;;;;;;7315946;32;20270;-64
2022/10/17 19:09:39;;;;;;;6.53;3.22;;;15.40;99.90;;;;;;7317810;32;20111;-64
2022/10/17 19:13:42;;;;;;;5.43;3.30;;;15.40;99.90;;;;;;7326077;32;20108;-65
2022/10/17 19:17:44;;;;;;;5.90;3.03;;;15.40;99.90;;;;;;7323479;32;20108;-62
2022/10/17 19:21:46;;;;;;;14.40;7.43;;;15.30;99.90;;;;;;7325777;32;20471;-64
2022/10/17 19:25:47;;;;;;;6.90;6.05;;;15.30;99.90;;;;;;7321076;32;20195;-64
2022/10/17 19:29:49;;;;;;;8.90;4.62;;;15.20;99.90;;;;;;7317966;32;20180;-63
2022/10/17 19:33:52;;;;;;;8.90;4.35;;;15.20;99.90;;;;;;7318560;32;20131;-66
2022/10/17 19:37:53;;;;;;;11.02;4.68;;;15.10;99.90;;;;;;7326597;32;20103;-64
2022/10/17 19:41:55;;;;;;;12.32;4.40;;;15.10;99.90;;;;;;7316742;32;20180;-65
2022/10/17 19:45:59;;;;;;;7.25;4.55;;;15.00;99.90;;;;;;7321466;32;20119;-63
2022/10/17 19:50:01;;;;;;;11.15;4.50;;;15.00;99.90;;;;;;7320219;32;20124;-65
2022/10/17 19:54:08;;;;;;;9.95;4.80;;;15.00;99.90;;;;;;7327386;32;20218;-64
2022/10/17 19:58:10;;;;;;;8.15;6.28;;;15.00;99.90;;;;;;7313150;32;20107;-65
2022/10/17 20:02:13;;;;;;;10.05;5.95;;;15.00;99.90;;;;;;7311802;32;20124;-63
2022/10/17 20:06:15;;;;;;;7.80;5.53;;;15.00;99.90;;;;;;7326596;32;20134;-64
2022/10/17 20:10:17;;;;;;;8.27;5.28;;;15.00;99.90;;;;;;7320319;32;20103;-65
2022/10/17 20:14:19;;;;;;;10.02;5.45;;;15.00;99.90;;;;;;7323895;32;20119;-65
2022/10/17 20:18:22;;;;;;;23.02;18.02;;;14.90;99.90;;;;;;7317555;32;20723;-65
2022/10/17 20:22:23;;;;;;;13.57;8.00;;;14.90;99.90;;;;;;7316480;32;20137;-66
2022/10/17 20:26:26;;;;;;;13.10;6.18;;;14.90;99.90;;;;;;7326138;32;20793;-66
2022/10/17 20:30:45;;;;;;;7.28;5.82;;;14.80;99.90;;;;;;7311298;32;20232;-64
2022/10/17 20:34:46;;;;;;;15.25;5.62;;;14.80;99.90;;;;;;7324216;32;20107;-62
2022/10/17 20:38:53;;;;;;;8.27;5.68;;;14.80;99.90;;;;;;7313776;32;20207;-62
2022/10/17 20:42:55;;;;;;;9.23;5.00;;;14.80;99.90;;;;;;7314875;32;20473;-63
2022/10/17 20:46:56;;;;;;;8.07;5.43;;;14.80;99.90;;;;;;7320054;32;20131;-63
2022/10/17 20:51:07;;;;;;;10.13;5.50;;;14.80;99.90;;;;;;7316658;32;20116;-64
2022/10/17 20:55:09;;;;;;;10.38;5.12;;;14.80;99.90;;;;;;7318567;32;20120;-63
2022/10/17 20:59:15;;;;;;;7.68;5.25;;;14.70;99.90;;;;;;7318014;32;20126;-63
2022/10/17 21:03:16;;;;;;;11.50;5.47;;;14.80;99.90;;;;;;7322179;32;20696;-63
2022/10/17 21:07:18;;;;;;;8.15;5.35;;;14.80;99.90;;;;;;7315074;32;20260;-64
2022/10/17 21:11:26;;;;;;;8.52;5.15;;;14.70;99.90;;;;;;7316781;32;20103;-62